Time;durP1;ratioP1;P1;durP2;ratioP2;P2;SDS_P1;SDS_P2;PMS_P1;PMS_P2;Temp;Humidity;BMP_temperature;BMP_pressure;BME280_temperature;BME280_humidity;BME280_pressure;Samples;Min_cycle;Max_cycle;Signal;HPM_P1;HPM_P2
2021/11/08 00:00:15;;;;;;;;;;;;;;;10.21;nan;99539.06;5039180;28;19921;-86
2021/11/08 00:02:45;;;;;;;;;;;;;;;10.22;nan;99535.84;5051886;28;19925;-86
2021/11/08 00:05:12;;;;;;;;;;;;;;;9.95;nan;99542.41;5051860;28;19924;-86
2021/11/08 00:07:40;;;;;;;;;;;;;;;10.02;nan;99547.94;5055226;28;19920;-87
2021/11/08 00:10:08;;;;;;;;;;;;;;;10.18;nan;99559.41;5071923;28;19932;-87
2021/11/08 00:12:36;;;;;;;;;;;;;;;10.30;nan;99558.97;5071675;28;19925;-87
2021/11/08 00:15:06;;;;;;;;;;;;;;;10.40;nan;99556.09;5051874;28;19931;-87
2021/11/08 00:17:47;;;;;;;;;;;;;;;10.06;nan;99526.38;5050336;28;20306;-87
2021/11/08 00:20:49;;;;;;;;;;;;;;;10.19;nan;99547.06;5088174;28;19920;-86
2021/11/08 00:23:11;;;;;;;;;;;;;;;10.22;nan;99560.22;5069602;28;19924;-87
2021/11/08 00:25:40;;;;;;;;;;;;;;;10.54;nan;99549.59;5071511;28;19924;-87
2021/11/08 00:28:08;;;;;;;;;;;;;;;10.12;nan;99533.13;5071416;28;19921;-87
2021/11/08 00:30:36;;;;;;;;;;;;;;;10.53;nan;99534.03;5051560;28;19921;-87
2021/11/08 00:33:04;;;;;;;;;;;;;;;10.57;nan;99535.59;5054008;28;19920;-87
2021/11/08 00:35:32;;;;;;;;;;;;;;;10.74;nan;99533.84;5051240;28;19952;-87
2021/11/08 00:37:59;;;;;;;;;;;;;;;10.42;nan;99539.69;5048303;28;19927;-87
2021/11/08 00:40:26;;;;;;;;;;;;;;;10.66;nan;99540.72;5058871;28;19920;-86
2021/11/08 00:42:53;;;;;;;;;;;;;;;10.35;nan;99530.56;5071159;28;19920;-87
2021/11/08 00:45:21;;;;;;;;;;;;;;;10.75;nan;99541.03;5069535;28;20430;-87
2021/11/08 00:47:48;;;;;;;;;;;;;;;11.33;nan;99537.22;5063310;28;19924;-87
2021/11/08 00:50:15;;;;;;;;;;;;;;;10.98;nan;99522.41;5029045;28;19920;-88
2021/11/08 00:52:43;;;;;;;;;;;;;;;10.70;nan;99527.50;5054682;28;19921;-87
2021/11/08 00:55:10;;;;;;;;;;;;;;;11.03;nan;99528.78;5072437;28;19928;-87
2021/11/08 00:57:39;;;;;;;;;;;;;;;11.18;nan;99525.41;5071105;28;19925;-87
2021/11/08 01:00:08;;;;;;;;;;;;;;;10.76;nan;99511.84;5072494;28;19927;-87
2021/11/08 01:02:36;;;;;;;;;;;;;;;10.88;nan;99516.94;5070891;28;19920;-88
2021/11/08 01:05:04;;;;;;;;;;;;;;;11.00;nan;99499.63;5060863;28;19921;-87
2021/11/08 01:07:31;;;;;;;;;;;;;;;10.96;nan;99498.88;5050993;28;19920;-87
2021/11/08 01:09:59;;;;;;;;;;;;;;;10.99;nan;99506.44;5054476;28;20326;-88
2021/11/08 01:12:27;;;;;;;;;;;;;;;10.98;nan;99513.22;5090215;28;20143;-87
2021/11/08 01:14:54;;;;;;;;;;;;;;;10.48;nan;99510.13;5071157;28;19920;-88
2021/11/08 01:17:22;;;;;;;;;;;;;;;10.64;nan;99501.19;5054551;28;19927;-87
2021/11/08 01:19:51;;;;;;;;;;;;;;;10.98;nan;99498.47;5037829;28;19973;-87
2021/11/08 01:22:20;;;;;;;;;;;;;;;10.39;nan;99495.06;5054766;28;19934;-87
2021/11/08 01:24:53;;;;;;;;;;;;;;;10.76;nan;99507.06;5066340;28;19921;-87
2021/11/08 01:27:24;;;;;;;;;;;;;;;10.15;nan;99507.19;5063891;28;19920;-87
2021/11/08 01:29:51;;;;;;;;;;;;;;;10.47;nan;99518.91;5070829;28;19920;-87
2021/11/08 01:32:18;;;;;;;;;;;;;;;10.37;nan;99528.19;5054102;28;19924;-87
2021/11/08 01:34:46;;;;;;;;;;;;;;;10.09;nan;99525.56;5070654;28;19927;-88
2021/11/08 01:37:16;;;;;;;;;;;;;;;10.29;nan;99529.44;5050948;28;19924;-88
2021/11/08 01:39:44;;;;;;;;;;;;;;;10.21;nan;99520.31;5049515;28;19920;-87
2021/11/08 01:42:12;;;;;;;;;;;;;;;9.70;nan;99536.16;5096496;28;19931;-87
2021/11/08 01:44:39;;;;;;;;;;;;;;;10.06;nan;99537.53;5044381;28;19931;-87
2021/11/08 01:47:06;;;;;;;;;;;;;;;10.10;nan;99544.72;5036377;28;19935;-88
2021/11/08 01:49:34;;;;;;;;;;;;;;;9.59;nan;99541.00;5078562;28;19920;-87
2021/11/08 01:52:02;;;;;;;;;;;;;;;9.66;nan;99540.97;5072108;28;19924;-88
2021/11/08 01:54:30;;;;;;;;;;;;;;;9.68;nan;99555.31;5054487;28;19920;-87
2021/11/08 01:56:58;;;;;;;;;;;;;;;9.90;nan;99548.41;5058038;28;20298;-87
2021/11/08 01:59:26;;;;;;;;;;;;;;;9.86;nan;99547.66;5074173;28;19920;-87
2021/11/08 02:01:54;;;;;;;;;;;;;;;9.48;nan;99545.81;5073873;28;19932;-87
2021/11/08 02:04:22;;;;;;;;;;;;;;;9.92;nan;99559.97;5037728;28;19921;-87
2021/11/08 02:06:49;;;;;;;;;;;;;;;9.36;nan;99565.78;5057776;28;19920;-87
2021/11/08 02:09:17;;;;;;;;;;;;;;;9.45;nan;99580.09;5076436;28;20306;-87
2021/11/08 02:11:44;;;;;;;;;;;;;;;9.26;nan;99573.00;5074170;28;19921;-87
2021/11/08 02:14:11;;;;;;;;;;;;;;;9.63;nan;99572.47;5073793;28;20436;-87
2021/11/08 02:16:40;;;;;;;;;;;;;;;9.61;nan;99577.66;5049646;28;19920;-87
2021/11/08 02:19:07;;;;;;;;;;;;;;;8.85;nan;99569.88;5051593;28;19926;-86
2021/11/08 02:21:36;;;;;;;;;;;;;;;8.70;nan;99587.81;5073809;28;19931;-86
2021/11/08 02:24:07;;;;;;;;;;;;;;;9.67;nan;99598.34;5075141;28;19965;-87
2021/11/08 02:26:35;;;;;;;;;;;;;;;9.40;nan;99584.13;5073742;28;19931;-87
2021/11/08 02:29:03;;;;;;;;;;;;;;;9.41;nan;99590.47;5063501;28;19962;-87
2021/11/08 02:31:33;;;;;;;;;;;;;;;9.99;nan;99582.25;5072022;28;19926;-87
2021/11/08 02:34:01;;;;;;;;;;;;;;;9.31;nan;99574.56;5067746;28;19927;-87
2021/11/08 02:36:29;;;;;;;;;;;;;;;9.09;nan;99577.41;5051491;28;19920;-86
2021/11/08 02:38:59;;;;;;;;;;;;;;;9.21;nan;99572.63;5080964;28;19920;-87
2021/11/08 02:41:28;;;;;;;;;;;;;;;9.10;nan;99581.78;5047626;28;20291;-89
2021/11/08 02:43:58;;;;;;;;;;;;;;;8.67;nan;99580.25;5069847;28;20286;-88
2021/11/08 02:46:27;;;;;;;;;;;;;;;8.84;nan;99573.88;5073164;28;19920;-88
2021/11/08 02:48:57;;;;;;;;;;;;;;;8.95;nan;99579.44;5056372;28;19927;-88
2021/11/08 02:51:27;;;;;;;;;;;;;;;8.75;nan;99564.31;5056859;28;20497;-88
2021/11/08 02:54:00;;;;;;;;;;;;;;;8.89;nan;99553.94;5055539;28;20269;-87
2021/11/08 02:56:28;;;;;;;;;;;;;;;9.37;nan;99559.00;5073432;28;19928;-87
2021/11/08 02:58:56;;;;;;;;;;;;;;;9.11;nan;99566.66;5073167;28;20372;-88
2021/11/08 03:01:25;;;;;;;;;;;;;;;9.47;nan;99577.69;5072495;28;20002;-88
2021/11/08 03:03:56;;;;;;;;;;;;;;;9.44;nan;99561.75;5072980;28;20282;-87
2021/11/08 03:06:33;;;;;;;;;;;;;;;9.60;nan;99559.31;5073080;28;20390;-87
2021/11/08 03:09:10;;;;;;;;;;;;;;;9.64;nan;99562.88;5053568;28;19926;-87
2021/11/08 03:11:37;;;;;;;;;;;;;;;9.58;nan;99567.28;5073033;28;20322;-86
2021/11/08 03:14:06;;;;;;;;;;;;;;;9.84;nan;99558.41;5075106;28;19921;-87
2021/11/08 03:16:53;;;;;;;;;;;;;;;10.07;nan;99553.91;5066008;28;20287;-87
2021/11/08 03:19:33;;;;;;;;;;;;;;;9.70;nan;99548.13;5087484;28;19921;-87
2021/11/08 03:22:06;;;;;;;;;;;;;;;9.32;nan;99545.47;5072822;28;19961;-88
2021/11/08 03:24:48;;;;;;;;;;;;;;;9.39;nan;99546.25;5056092;28;19925;-87
2021/11/08 03:29:52;;;;;;;;;;;;;;;8.81;nan;99541.25;5070672;28;19949;-87
2021/11/08 03:32:21;;;;;;;;;;;;;;;9.08;nan;99547.94;5056014;28;19945;-87
2021/11/08 03:34:58;;;;;;;;;;;;;;;9.05;nan;99529.25;5073639;28;20293;-87
2021/11/08 03:37:27;;;;;;;;;;;;;;;9.52;nan;99524.28;5072318;28;19921;-87
2021/11/08 03:39:54;;;;;;;;;;;;;;;9.24;nan;99535.56;5055910;28;19927;-87
2021/11/08 03:42:22;;;;;;;;;;;;;;;8.83;nan;99532.47;5075916;28;19924;-87
2021/11/08 03:44:49;;;;;;;;;;;;;;;8.96;nan;99537.22;5075362;28;19931;-87
2021/11/08 03:47:17;;;;;;;;;;;;;;;8.96;nan;99531.66;5075870;28;19956;-87
2021/11/08 03:49:44;;;;;;;;;;;;;;;9.26;nan;99535.94;5038947;28;19920;-87
2021/11/08 03:52:12;;;;;;;;;;;;;;;9.41;nan;99537.47;5054149;28;19931;-87
2021/11/08 03:54:39;;;;;;;;;;;;;;;9.36;nan;99537.91;5075704;28;20388;-87
2021/11/08 03:57:06;;;;;;;;;;;;;;;9.26;nan;99539.53;5093342;28;19927;-87
2021/11/08 03:59:33;;;;;;;;;;;;;;;9.21;nan;99544.72;5075444;28;19924;-88
2021/11/08 04:02:01;;;;;;;;;;;;;;;9.34;nan;99555.03;5058751;28;19926;-88
2021/11/08 04:04:28;;;;;;;;;;;;;;;9.15;nan;99544.31;5093275;28;19924;-87
2021/11/08 04:06:57;;;;;;;;;;;;;;;8.90;nan;99541.63;5058373;28;19976;-87
2021/11/08 04:09:24;;;;;;;;;;;;;;;10.25;nan;99557.38;5041709;28;19920;-86
2021/11/08 04:11:54;;;;;;;;;;;;;;;10.09;nan;99565.47;5070826;28;19920;-87
2021/11/08 04:14:23;;;;;;;;;;;;;;;10.46;nan;99568.41;5062548;28;19920;-87
2021/11/08 04:16:51;;;;;;;;;;;;;;;10.29;nan;99557.34;5075093;28;19920;-87
2021/11/08 04:19:19;;;;;;;;;;;;;;;10.82;nan;99547.34;5052935;28;19927;-87
2021/11/08 04:21:46;;;;;;;;;;;;;;;10.87;nan;99544.09;5072086;28;20313;-87
2021/11/08 04:24:14;;;;;;;;;;;;;;;10.39;nan;99548.91;5075009;28;19926;-87
2021/11/08 04:26:42;;;;;;;;;;;;;;;10.40;nan;99546.91;5057912;28;19920;-87
2021/11/08 04:29:09;;;;;;;;;;;;;;;10.10;nan;99533.53;5075004;28;19924;-87
2021/11/08 04:31:37;;;;;;;;;;;;;;;9.85;nan;99537.66;5054950;28;20290;-87
2021/11/08 04:34:25;;;;;;;;;;;;;;;10.11;nan;99529.56;5027953;28;19920;-87
2021/11/08 04:39:56;;;;;;;;;;;;;;;10.85;nan;99534.53;5054846;28;19927;-87
2021/11/08 04:42:33;;;;;;;;;;;;;;;11.18;nan;99527.41;5090858;28;19920;-87
2021/11/08 04:50:47;;;;;;;;;;;;;;;11.13;nan;99528.66;5092748;28;19924;-87
2021/11/08 04:53:09;;;;;;;;;;;;;;;11.13;nan;99539.06;5046443;28;19924;-87
2021/11/08 05:20:53;;;;;;;;;;;;;;;10.77;nan;99544.19;5074745;28;19919;-87
2021/11/08 05:31:44;;;;;;;;;;;;;;;10.56;nan;99566.72;5000815;28;19921;-88
2021/11/08 05:34:14;;;;;;;;;;;;;;;10.62;nan;99553.91;5017495;28;19921;-87
2021/11/08 05:36:42;;;;;;;;;;;;;;;10.57;nan;99557.16;5033651;28;19921;-87
2021/11/08 05:39:10;;;;;;;;;;;;;;;10.71;nan;99563.41;5017204;28;19925;-88
2021/11/08 05:41:40;;;;;;;;;;;;;;;10.63;nan;99550.69;5033459;28;19927;-88
2021/11/08 05:44:07;;;;;;;;;;;;;;;10.85;nan;99543.72;5016947;28;19921;-87
2021/11/08 05:46:35;;;;;;;;;;;;;;;10.72;nan;99553.81;5033533;28;19921;-88
2021/11/08 05:49:02;;;;;;;;;;;;;;;10.72;nan;99553.03;5049791;28;20380;-87
2021/11/08 05:51:29;;;;;;;;;;;;;;;10.74;nan;99557.00;5030140;28;19928;-87
2021/11/08 05:53:57;;;;;;;;;;;;;;;10.89;nan;99569.63;4998497;28;19925;-87
2021/11/08 05:59:11;;;;;;;;;;;;;;;10.83;nan;99587.25;5016908;28;19921;-87
2021/11/08 06:51:15;;;;;;;;;;;;;;;10.80;nan;99576.91;5063687;28;19966;-88
2021/11/08 06:53:46;;;;;;;;;;;;;;;10.48;nan;99571.56;5079748;28;19954;-77
2021/11/08 06:56:16;;;;;;;;;;;;;;;10.31;nan;99574.50;5056304;28;19924;-87
2021/11/08 06:58:43;;;;;;;;;;;;;;;10.18;nan;99578.97;5037464;28;19921;-86
2021/11/08 07:01:10;;;;;;;;;;;;;;;10.17;nan;99586.56;5074359;28;19927;-89
2021/11/08 07:03:37;;;;;;;;;;;;;;;10.44;nan;99576.41;5068414;28;19942;-88
2021/11/08 07:06:05;;;;;;;;;;;;;;;10.59;nan;99582.66;5046223;28;19920;-85
2021/11/08 07:08:32;;;;;;;;;;;;;;;10.79;nan;99581.72;5040682;28;19943;-88
2021/11/08 07:11:00;;;;;;;;;;;;;;;11.09;nan;99577.47;5038453;28;20409;-88
2021/11/08 07:13:27;;;;;;;;;;;;;;;11.22;nan;99570.13;5070157;28;19920;-88
2021/11/08 07:15:55;;;;;;;;;;;;;;;10.81;nan;99572.91;5052006;28;19930;-88
2021/11/08 07:18:22;;;;;;;;;;;;;;;10.82;nan;99568.91;5036384;28;19970;-87
2021/11/08 07:20:49;;;;;;;;;;;;;;;10.65;nan;99567.06;5063912;28;20311;-88
2021/11/08 07:23:16;;;;;;;;;;;;;;;10.51;nan;99561.59;5085741;28;20029;-88
2021/11/08 07:25:44;;;;;;;;;;;;;;;10.56;nan;99572.31;5036317;28;19929;-88
2021/11/08 07:28:14;;;;;;;;;;;;;;;10.70;nan;99572.22;5068619;28;20337;-87
2021/11/08 07:30:44;;;;;;;;;;;;;;;10.69;nan;99570.63;5036290;28;20576;-89
2021/11/08 07:33:11;;;;;;;;;;;;;;;10.70;nan;99570.22;5068843;28;19920;-88
2021/11/08 07:35:38;;;;;;;;;;;;;;;10.70;nan;99573.00;5072204;28;19927;-88
2021/11/08 07:38:06;;;;;;;;;;;;;;;10.97;nan;99561.97;5025891;28;20368;-88
2021/11/08 07:40:33;;;;;;;;;;;;;;;11.33;nan;99557.59;5058422;28;20329;-88
2021/11/08 07:43:01;;;;;;;;;;;;;;;11.18;nan;99564.56;5057709;28;19920;-88
2021/11/08 07:45:28;;;;;;;;;;;;;;;11.48;nan;99555.44;5055746;28;20449;-84
2021/11/08 07:47:55;;;;;;;;;;;;;;;11.59;nan;99562.50;5054444;28;19927;-86
2021/11/08 07:50:35;;;;;;;;;;;;;;;11.64;nan;99559.25;5040526;28;19927;-80
2021/11/08 07:53:03;;;;;;;;;;;;;;;11.15;nan;99570.97;5073589;28;20458;-80
2021/11/08 07:55:30;;;;;;;;;;;;;;;11.51;nan;99577.00;5073099;28;19925;-80
2021/11/08 07:58:00;;;;;;;;;;;;;;;11.21;nan;99560.16;5073364;28;19920;-80
2021/11/08 08:00:28;;;;;;;;;;;;;;;11.50;nan;99565.00;5073012;28;19927;-80
2021/11/08 08:03:05;;;;;;;;;;;;;;;11.73;nan;99553.94;5055249;28;19926;-80
2021/11/08 08:05:54;;;;;;;;;;;;;;;11.92;nan;99542.09;5057709;28;20194;-79
2021/11/08 08:08:21;;;;;;;;;;;;;;;12.00;nan;99549.19;5071619;28;19920;-79
2021/11/08 08:10:51;;;;;;;;;;;;;;;11.91;nan;99534.91;5069171;28;19920;-80
2021/11/08 08:13:23;;;;;;;;;;;;;;;11.86;nan;99538.16;5070996;28;19924;-79
2021/11/08 08:15:50;;;;;;;;;;;;;;;12.10;nan;99541.84;5051946;28;19924;-79
2021/11/08 08:18:18;;;;;;;;;;;;;;;12.18;nan;99543.31;5071462;28;19920;-79
2021/11/08 08:20:45;;;;;;;;;;;;;;;12.02;nan;99535.56;5072222;28;19974;-79
2021/11/08 08:23:12;;;;;;;;;;;;;;;11.87;nan;99550.16;5054273;28;19928;-79
2021/11/08 08:25:40;;;;;;;;;;;;;;;11.68;nan;99546.00;5072681;28;19949;-79
2021/11/08 08:28:07;;;;;;;;;;;;;;;11.82;nan;99565.44;5054516;28;19921;-79
2021/11/08 08:30:34;;;;;;;;;;;;;;;12.03;nan;99567.94;5054897;28;19920;-80
2021/11/08 08:33:02;;;;;;;;;;;;;;;12.26;nan;99568.03;5072380;28;19921;-79
2021/11/08 08:35:29;;;;;;;;;;;;;;;11.93;nan;99573.69;5072463;28;20381;-79
2021/11/08 08:37:56;;;;;;;;;;;;;;;11.75;nan;99587.94;5072340;28;19920;-79
2021/11/08 08:40:24;;;;;;;;;;;;;;;11.51;nan;99586.16;5072127;28;19924;-79
2021/11/08 08:42:51;;;;;;;;;;;;;;;12.04;nan;99580.72;5076762;28;19962;-79
2021/11/08 08:45:20;;;;;;;;;;;;;;;12.08;nan;99578.69;5088629;28;19943;-79
2021/11/08 08:47:47;;;;;;;;;;;;;;;12.32;nan;99587.94;5072494;28;19942;-79
2021/11/08 08:50:14;;;;;;;;;;;;;;;12.28;nan;99576.78;5090142;28;19923;-79
2021/11/08 08:52:43;;;;;;;;;;;;;;;12.37;nan;99577.03;5073660;28;19926;-79
2021/11/08 08:55:10;;;;;;;;;;;;;;;12.37;nan;99585.44;5091136;28;19931;-79
2021/11/08 08:57:37;;;;;;;;;;;;;;;12.48;nan;99580.47;5087854;28;19920;-79
2021/11/08 09:00:06;;;;;;;;;;;;;;;12.02;nan;99580.38;5070583;28;19920;-79
2021/11/08 09:02:45;;;;;;;;;;;;;;;11.80;nan;99581.84;5056012;28;19926;-80
2021/11/08 09:05:12;;;;;;;;;;;;;;;11.59;nan;99573.69;5038037;28;20367;-79
2021/11/08 09:07:39;;;;;;;;;;;;;;;11.41;nan;99577.88;5054129;28;19921;-80
2021/11/08 09:10:07;;;;;;;;;;;;;;;11.46;nan;99577.44;5054006;28;19931;-80
2021/11/08 09:12:34;;;;;;;;;;;;;;;11.24;nan;99574.06;5071888;28;19920;-80
2021/11/08 09:15:03;;;;;;;;;;;;;;;11.35;nan;99571.97;5087831;28;19920;-80
2021/11/08 09:17:30;;;;;;;;;;;;;;;11.00;nan;99569.53;5053870;28;19924;-80
2021/11/08 09:20:05;;;;;;;;;;;;;;;11.11;nan;99570.22;5086424;28;19920;-80
2021/11/08 09:22:33;;;;;;;;;;;;;;;11.25;nan;99563.69;5084062;28;20393;-80
2021/11/08 09:25:00;;;;;;;;;;;;;;;11.21;nan;99569.31;5077960;28;19924;-80
2021/11/08 09:27:28;;;;;;;;;;;;;;;11.36;nan;99567.19;5092213;28;19927;-80
2021/11/08 09:29:55;;;;;;;;;;;;;;;11.80;nan;99565.03;5056458;28;20403;-78
2021/11/08 09:32:22;;;;;;;;;;;;;;;11.95;nan;99551.66;5092094;28;19920;-80
2021/11/08 09:34:50;;;;;;;;;;;;;;;12.54;nan;99544.38;5054609;28;19931;-80
2021/11/08 09:37:18;;;;;;;;;;;;;;;12.17;nan;99553.75;5092360;28;19927;-78
2021/11/08 09:39:46;;;;;;;;;;;;;;;12.59;nan;99553.09;5092263;28;19965;-80
2021/11/08 09:42:14;;;;;;;;;;;;;;;13.14;nan;99543.34;5070621;28;19921;-80
2021/11/08 09:44:42;;;;;;;;;;;;;;;12.93;nan;99543.69;5071861;28;19931;-80
2021/11/08 09:47:10;;;;;;;;;;;;;;;13.43;nan;99550.00;5070436;28;19925;-80
2021/11/08 09:49:39;;;;;;;;;;;;;;;13.77;nan;99542.06;5061368;28;19921;-80
2021/11/08 09:52:07;;;;;;;;;;;;;;;13.82;nan;99549.97;5068795;28;19921;-80
2021/11/08 09:54:40;;;;;;;;;;;;;;;13.67;nan;99537.47;5071988;28;19920;-81
2021/11/08 09:57:07;;;;;;;;;;;;;;;13.84;nan;99544.72;5070567;28;20318;-80
2021/11/08 09:59:34;;;;;;;;;;;;;;;13.91;nan;99553.00;5070651;28;19920;-80
2021/11/08 10:02:02;;;;;;;;;;;;;;;13.83;nan;99546.75;5071547;28;19924;-80
2021/11/08 10:04:29;;;;;;;;;;;;;;;13.92;nan;99540.53;5070669;28;19974;-80
2021/11/08 10:06:57;;;;;;;;;;;;;;;13.95;nan;99542.50;5070764;28;19921;-80
2021/11/08 10:09:29;;;;;;;;;;;;;;;14.07;nan;99544.63;5071610;28;19921;-80
2021/11/08 10:11:56;;;;;;;;;;;;;;;13.98;nan;99538.81;5072572;28;19920;-80
2021/11/08 10:14:24;;;;;;;;;;;;;;;14.12;nan;99532.84;5073937;28;19924;-80
2021/11/08 10:16:58;;;;;;;;;;;;;;;13.95;nan;99531.25;5075006;28;19920;-80
2021/11/08 10:19:26;;;;;;;;;;;;;;;13.46;nan;99529.47;5075101;28;19927;-80
2021/11/08 10:21:55;;;;;;;;;;;;;;;13.31;nan;99525.38;5074992;28;19924;-80
2021/11/08 10:24:26;;;;;;;;;;;;;;;13.33;nan;99525.75;5073933;28;20390;-80
2021/11/08 10:26:55;;;;;;;;;;;;;;;13.86;nan;99520.59;5074981;28;20379;-80
2021/11/08 10:30:56;;;;;;;;;;;;;;;13.70;100.00;99514.13;5141678;27;19969;-81
2021/11/08 10:33:25;;;;;;;;;;;;;;;13.46;100.00;99519.06;5112672;28;19932;-81
2021/11/08 10:35:58;;;;;;;;;;;;;;;13.76;100.00;99523.63;5130852;28;20012;-81
2021/11/08 10:38:26;;;;;;;;;;;;;;;13.96;100.00;99515.97;5130511;28;19931;-81
2021/11/08 10:41:06;;;;;;;;;;;;;;;14.30;100.00;99517.19;5095462;28;19924;-82
2021/11/08 10:43:36;;;;;;;;;;;;;;;13.98;100.00;99507.91;5130309;28;20025;-81
2021/11/08 10:46:07;;;;;;;;;;;;;;;14.03;100.00;99510.19;5112051;28;20157;-81
2021/11/08 10:48:45;;;;;;;;;;;;;;;14.29;100.00;99506.38;5106533;28;19977;-81
2021/11/08 10:51:13;;;;;;;;;;;;;;;14.43;100.00;99504.00;5112164;28;20398;-82
2021/11/08 10:53:53;;;;;;;;;;;;;;;14.11;100.00;99503.97;5112181;28;19932;-82
2021/11/08 10:56:39;;;;;;;;;;;;;;;14.87;100.00;99491.25;5112375;28;19959;-81
2021/11/08 10:59:11;;;;;;;;;;;;;;;14.45;100.00;99493.13;5129988;28;19924;-82
2021/11/08 11:01:42;;;;;;;;;;;;;;;14.61;100.00;99499.97;5095166;28;19928;-82
2021/11/08 11:04:09;;;;;;;;;;;;;;;14.67;100.00;99493.38;5130029;28;20336;-80
2021/11/08 11:06:39;;;;;;;;;;;;;;;14.78;100.00;99495.94;5129609;28;19927;-80
2021/11/08 11:09:30;;;;;;;;;;;;;;;14.97;100.00;99495.81;5129136;28;20298;-81
2021/11/08 11:12:07;;;;;;;;;;;;;;;15.25;100.00;99499.88;5114646;28;19932;-81
2021/11/08 11:14:42;;;;;;;;;;;;;;;15.03;100.00;99498.88;5110944;28;19927;-80
2021/11/08 11:17:11;;;;;;;;;;;;;;;15.31;100.00;99507.31;5129473;28;20022;-80
2021/11/08 11:19:40;;;;;;;;;;;;;;;15.52;100.00;99509.59;5129659;28;19931;-80
2021/11/08 11:22:09;;;;;;;;;;;;;;;15.07;100.00;99500.34;5111590;28;20581;-80
2021/11/08 11:24:43;;;;;;;;;;;;;;;15.21;100.00;99499.97;5129795;28;19923;-80
2021/11/08 11:27:13;;;;;;;;;;;;;;;15.11;100.00;99498.25;5111593;28;20276;-81
2021/11/08 11:29:40;;;;;;;;;;;;;;;15.04;100.00;99495.59;5111080;28;20117;-81
2021/11/08 11:32:27;;;;;;;;;;;;;;;14.88;100.00;99498.47;5111032;28;19931;-81
2021/11/08 11:34:54;;;;;;;;;;;;;;;15.10;100.00;99493.84;5109766;28;20065;-81
2021/11/08 11:37:22;;;;;;;;;;;;;;;14.90;100.00;99498.03;5119919;28;20374;-81
2021/11/08 11:40:01;;;;;;;;;;;;;;;15.49;100.00;99490.75;5129107;28;20322;-81
2021/11/08 11:42:28;;;;;;;;;;;;;;;15.56;100.00;99493.38;5114631;28;20928;-81
2021/11/08 11:45:05;;;;;;;;;;;;;;;15.41;100.00;99489.38;5112649;28;19924;-81
2021/11/08 11:47:32;;;;;;;;;;;;;;;15.73;100.00;99486.41;5114785;28;19928;-81
2021/11/08 11:52:10;;;;;;;;;;;;;;;15.93;100.00;99478.53;5087478;28;19962;-81
2021/11/08 11:54:38;;;;;;;;;;;;;;;15.31;100.00;99481.19;5104915;28;19924;-81
2021/11/08 11:57:05;;;;;;;;;;;;;;;14.89;100.00;99476.75;5071914;28;20384;-81
2021/11/08 11:59:37;;;;;;;;;;;;;;;15.06;100.00;99470.63;5074768;28;19928;-81
2021/11/08 12:02:04;;;;;;;;;;;;;;;15.17;100.00;99471.13;5085684;28;19932;-81
2021/11/08 12:04:31;;;;;;;;;;;;;;;15.17;100.00;99470.34;5080046;28;20019;-81
2021/11/08 12:07:01;;;;;;;;;;;;;;;14.99;100.00;99464.41;5068183;28;19974;-81
2021/11/08 12:09:30;;;;;;;;;;;;;;;15.24;100.00;99470.94;5055457;28;20198;-81
2021/11/08 12:11:57;;;;;;;;;;;;;;;15.26;100.00;99462.84;5069086;28;20415;-81
2021/11/08 12:14:26;;;;;;;;;;;;;;;15.56;100.00;99465.19;5069172;28;19925;-80
2021/11/08 12:17:02;;;;;;;;;;;;;;;15.57;100.00;99463.94;5069260;28;19924;-81
2021/11/08 12:19:31;;;;;;;;;;;;;;;15.56;100.00;99465.19;5095125;28;20344;-81
2021/11/08 12:22:09;;;;;;;;;;;;;;;15.25;100.00;99461.25;5086054;28;20383;-81
2021/11/08 12:24:36;;;;;;;;;;;;;;;15.47;100.00;99469.91;5086234;28;19924;-81
2021/11/08 12:27:06;;;;;;;;;;;;;;;14.96;100.00;99454.84;5083060;28;19930;-81
2021/11/08 12:29:44;;;;;;;;;;;;;;;14.72;100.00;99455.50;5088827;28;19932;-81
2021/11/08 12:32:12;;;;;;;;;;;;;;;15.20;100.00;99453.34;5084890;28;19932;-80
2021/11/08 12:34:40;;;;;;;;;;;;;;;15.47;100.00;99453.00;5085453;28;19924;-81
2021/11/08 12:37:08;;;;;;;;;;;;;;;15.53;100.00;99448.41;5097072;28;19925;-81
2021/11/08 12:39:35;;;;;;;;;;;;;;;15.60;100.00;99448.97;5068652;28;19924;-81
2021/11/08 12:42:06;;;;;;;;;;;;;;;15.46;100.00;99449.41;5068424;28;19955;-81
2021/11/08 12:44:34;;;;;;;;;;;;;;;15.48;100.00;99435.66;5068765;28;19960;-81
2021/11/08 12:47:02;;;;;;;;;;;;;;;15.79;100.00;99422.66;5068410;28;19929;-81
2021/11/08 12:49:32;;;;;;;;;;;;;;;15.97;100.00;99428.50;5073126;28;19960;-81
2021/11/08 12:52:00;;;;;;;;;;;;;;;15.72;100.00;99439.75;5066885;28;19967;-81
2021/11/08 12:54:29;;;;;;;;;;;;;;;15.61;100.00;99438.50;5074964;28;20300;-81
2021/11/08 12:57:06;;;;;;;;;;;;;;;15.92;100.00;99437.50;5072446;28;19924;-81
2021/11/08 12:59:41;;;;;;;;;;;;;;;15.74;100.00;99442.13;5068465;28;20486;-81
2021/11/08 13:02:16;;;;;;;;;;;;;;;15.74;100.00;99430.84;5063004;28;19924;-81
2021/11/08 13:04:44;;;;;;;;;;;;;;;15.89;100.00;99429.16;5055058;28;19928;-81
2021/11/08 13:07:12;;;;;;;;;;;;;;;15.85;100.00;99429.28;5055004;28;19932;-81
2021/11/08 13:09:59;;;;;;;;;;;;;;;15.81;100.00;99422.97;5062001;28;19932;-81
2021/11/08 13:12:32;;;;;;;;;;;;;;;15.94;100.00;99429.41;5054885;28;20380;-81
2021/11/08 13:15:20;;;;;;;;;;;;;;;16.09;100.00;99433.34;5089444;28;20325;-80
2021/11/08 13:17:47;;;;;;;;;;;;;;;16.21;100.00;99426.09;5066907;28;19924;-81
2021/11/08 13:20:15;;;;;;;;;;;;;;;16.47;100.00;99424.06;5070200;28;19929;-81
2021/11/08 13:22:46;;;;;;;;;;;;;;;16.45;100.00;99418.88;5072004;28;19925;-81
2021/11/08 13:25:21;;;;;;;;;;;;;;;16.99;100.00;99412.97;5086632;28;20305;-81
2021/11/08 13:27:59;;;;;;;;;;;;;;;17.13;100.00;99406.81;5068005;28;19924;-81
2021/11/08 13:30:31;;;;;;;;;;;;;;;16.31;100.00;99413.72;5073155;28;20788;-81
2021/11/08 13:32:58;;;;;;;;;;;;;;;16.63;100.00;99415.47;5072695;28;20002;-81
2021/11/08 13:35:27;;;;;;;;;;;;;;;16.59;100.00;99406.31;5071477;28;19924;-81
2021/11/08 13:38:01;;;;;;;;;;;;;;;16.29;100.00;99410.53;5070128;28;20307;-80
2021/11/08 13:40:30;;;;;;;;;;;;;;;16.20;100.00;99402.78;5070080;28;20371;-80
2021/11/08 13:43:05;;;;;;;;;;;;;;;16.28;100.00;99404.09;5072096;28;20316;-80
2021/11/08 13:45:42;;;;;;;;;;;;;;;16.72;100.00;99398.63;5071413;28;19931;-80
2021/11/08 13:48:18;;;;;;;;;;;;;;;16.24;100.00;99397.00;5067962;28;19924;-80
2021/11/08 13:50:46;;;;;;;;;;;;;;;16.15;100.00;99396.91;5068204;28;19947;-80
2021/11/08 13:53:17;;;;;;;;;;;;;;;16.42;100.00;99385.91;5071238;28;19932;-82
2021/11/08 13:55:47;;;;;;;;;;;;;;;16.68;100.00;99381.81;5053650;28;19924;-81
2021/11/08 13:58:16;;;;;;;;;;;;;;;16.74;100.00;99373.53;5051716;28;19956;-81
2021/11/08 14:00:44;;;;;;;;;;;;;;;16.39;100.00;99380.41;5052817;28;19928;-81
2021/11/08 14:03:16;;;;;;;;;;;;;;;16.43;100.00;99376.22;5053256;28;19925;-81
2021/11/08 14:05:51;;;;;;;;;;;;;;;16.80;100.00;99374.53;5053659;28;20023;-81
2021/11/08 14:08:22;;;;;;;;;;;;;;;16.91;100.00;99366.47;5051476;28;19932;-81
2021/11/08 14:10:50;;;;;;;;;;;;;;;16.95;100.00;99364.31;5034243;28;19925;-81
2021/11/08 14:13:17;;;;;;;;;;;;;;;17.00;100.00;99363.72;5053312;28;19925;-81
2021/11/08 14:15:44;;;;;;;;;;;;;;;16.79;100.00;99358.84;5053249;28;20335;-81
2021/11/08 14:18:18;;;;;;;;;;;;;;;16.63;100.00;99356.22;5053732;28;19936;-81
2021/11/08 14:20:48;;;;;;;;;;;;;;;16.74;100.00;99350.97;5052615;28;19947;-81
2021/11/08 14:23:25;;;;;;;;;;;;;;;17.14;100.00;99347.06;5053412;28;19924;-81
2021/11/08 14:25:53;;;;;;;;;;;;;;;16.73;100.00;99349.41;5053658;28;20304;-81
2021/11/08 14:28:25;;;;;;;;;;;;;;;16.43;100.00;99358.50;5053460;28;19936;-81
2021/11/08 14:30:52;;;;;;;;;;;;;;;16.02;100.00;99356.69;5052337;28;19974;-81
2021/11/08 14:33:19;;;;;;;;;;;;;;;15.63;100.00;99366.38;5035570;28;19925;-81
2021/11/08 14:35:48;;;;;;;;;;;;;;;15.44;100.00;99361.78;5035777;28;19925;-81
2021/11/08 14:38:46;;;;;;;;;;;;;;;15.89;100.00;99365.16;5053222;28;19924;-81
2021/11/08 14:41:13;;;;;;;;;;;;;;;15.84;100.00;99360.06;5056647;28;20019;-81
2021/11/08 14:43:40;;;;;;;;;;;;;;;16.07;100.00;99358.91;5053235;28;19966;-81
2021/11/08 14:46:09;;;;;;;;;;;;;;;15.93;100.00;99360.19;5052194;28;19925;-81
2021/11/08 14:48:37;;;;;;;;;;;;;;;15.54;100.00;99366.28;5052996;28;20359;-81
2021/11/08 14:51:19;;;;;;;;;;;;;;;15.73;100.00;99356.03;5052570;28;19929;-81
2021/11/08 14:53:53;;;;;;;;;;;;;;;15.29;100.00;99362.63;5053209;28;19925;-81